Time;durP1;ratioP1;P1;durP2;ratioP2;P2;SDS_P1;SDS_P2;PMS_P1;PMS_P2;Temp;Humidity;BMP_temperature;BMP_pressure;BME280_temperature;BME280_humidity;BME280_pressure;Samples;Min_cycle;Max_cycle;Signal;HPM_P1;HPM_P2
2023/06/15 00:00:56;;;;;;;2.00;1.88;;;;;;;;;;5075549;28;20222;-83
2023/06/15 00:03:24;;;;;;;3.17;1.92;;;;;;;;;;5075540;28;20568;-83
2023/06/15 00:05:51;;;;;;;2.67;1.63;;;;;;;;;;5075250;28;20727;-83
2023/06/15 00:08:21;;;;;;;2.20;2.05;;;;;;;;;;5075258;28;20557;-82
2023/06/15 00:10:48;;;;;;;2.15;1.95;;;;;;;;;;5075425;28;20331;-84
2023/06/15 00:13:16;;;;;;;1.92;1.83;;;;;;;;;;5074272;28;20205;-83
2023/06/15 00:15:44;;;;;;;1.88;1.77;;;;;;;;;;5075746;28;20667;-82
2023/06/15 00:18:12;;;;;;;2.28;2.08;;;;;;;;;;5075002;28;20200;-83
2023/06/15 00:20:39;;;;;;;2.38;2.28;;;;;;;;;;5075504;28;20254;-83
2023/06/15 00:23:08;;;;;;;2.30;2.10;;;;;;;;;;5074836;28;20208;-85
2023/06/15 00:25:37;;;;;;;2.17;1.90;;;;;;;;;;5075998;28;20266;-84
2023/06/15 00:28:05;;;;;;;3.90;2.60;;;;;;;;;;5075839;28;20236;-85
2023/06/15 00:30:33;;;;;;;3.72;2.22;;;;;;;;;;5075746;28;20307;-85
2023/06/15 00:33:00;;;;;;;4.32;1.90;;;;;;;;;;5076151;28;20235;-84
2023/06/15 00:35:28;;;;;;;2.17;1.98;;;;;;;;;;5076035;28;20307;-83
2023/06/15 00:37:55;;;;;;;2.85;1.92;;;;;;;;;;5075181;28;20204;-83
2023/06/15 00:40:23;;;;;;;2.00;1.90;;;;;;;;;;5075331;28;20227;-85
2023/06/15 00:42:52;;;;;;;2.97;2.13;;;;;;;;;;5075261;28;20575;-82
2023/06/15 00:45:19;;;;;;;5.35;2.13;;;;;;;;;;5074852;28;20586;-82
2023/06/15 00:47:48;;;;;;;3.15;1.42;;;;;;;;;;5076024;28;20201;-83
2023/06/15 00:50:19;;;;;;;2.17;2.00;;;;;;;;;;5075785;28;20672;-81
2023/06/15 00:52:47;;;;;;;2.35;2.15;;;;;;;;;;5075905;28;20190;-83
2023/06/15 00:55:15;;;;;;;2.17;1.80;;;;;;;;;;5076044;28;20788;-82
2023/06/15 00:57:44;;;;;;;2.20;2.00;;;;;;;;;;5073815;28;20291;-82
2023/06/15 01:00:15;;;;;;;2.17;2.08;;;;;;;;;;5073383;28;20568;-82
2023/06/15 01:02:44;;;;;;;2.05;1.95;;;;;;;;;;5073477;28;20205;-83
2023/06/15 01:05:12;;;;;;;3.38;2.03;;;;;;;;;;5074275;28;20221;-83
2023/06/15 01:07:46;;;;;;;3.78;2.13;;;;;;;;;;5074876;28;20346;-82
2023/06/15 01:10:15;;;;;;;2.00;1.90;;;;;;;;;;5076387;28;20358;-83
2023/06/15 01:12:45;;;;;;;2.40;2.08;;;;;;;;;;5075591;28;20208;-84
2023/06/15 01:15:14;;;;;;;2.55;2.35;;;;;;;;;;5075225;28;20228;-83
2023/06/15 01:17:46;;;;;;;2.10;1.88;;;;;;;;;;5075939;28;20208;-83
2023/06/15 01:20:17;;;;;;;2.60;2.40;;;;;;;;;;5077009;28;20188;-83
2023/06/15 01:22:59;;;;;;;1.90;1.70;;;;;;;;;;5077395;28;20204;-83
2023/06/15 01:25:37;;;;;;;2.03;1.83;;;;;;;;;;5081251;28;20220;-84
2023/06/15 01:28:09;;;;;;;2.70;2.50;;;;;;;;;;5080020;28;20193;-83
2023/06/15 01:30:42;;;;;;;2.63;1.92;;;;;;;;;;5079631;28;20723;-82
2023/06/15 01:33:10;;;;;;;2.03;1.92;;;;;;;;;;5078892;28;20276;-83
2023/06/15 01:35:38;;;;;;;2.90;1.65;;;;;;;;;;5078232;28;20755;-85
2023/06/15 01:38:06;;;;;;;3.00;2.15;;;;;;;;;;5079936;28;20207;-84
2023/06/15 01:40:37;;;;;;;2.28;1.77;;;;;;;;;;5080223;28;20205;-83
2023/06/15 01:43:08;;;;;;;2.50;2.30;;;;;;;;;;5079724;28;20197;-85
2023/06/15 01:45:36;;;;;;;3.35;2.55;;;;;;;;;;5079447;28;20698;-84
2023/06/15 01:48:04;;;;;;;2.20;2.00;;;;;;;;;;5080240;28;20231;-83
2023/06/15 01:50:33;;;;;;;1.88;1.75;;;;;;;;;;5080776;28;20307;-84
2023/06/15 01:53:01;;;;;;;1.70;1.60;;;;;;;;;;5079645;28;20291;-83
2023/06/15 01:55:29;;;;;;;2.00;1.80;;;;;;;;;;5079436;28;20312;-83
2023/06/15 01:57:56;;;;;;;1.90;1.80;;;;;;;;;;5078794;28;20649;-85
2023/06/15 02:00:26;;;;;;;1.80;1.70;;;;;;;;;;5080181;28;20211;-83
2023/06/15 02:02:54;;;;;;;1.77;1.67;;;;;;;;;;5079840;28;20304;-85
2023/06/15 02:05:21;;;;;;;2.00;1.88;;;;;;;;;;5079040;28;20229;-84
2023/06/15 02:07:49;;;;;;;2.10;1.90;;;;;;;;;;5078778;28;20201;-84
2023/06/15 02:10:18;;;;;;;2.47;2.28;;;;;;;;;;5079947;28;20286;-83
2023/06/15 02:12:46;;;;;;;1.92;1.83;;;;;;;;;;5079806;28;20213;-84
2023/06/15 02:15:14;;;;;;;2.30;1.80;;;;;;;;;;5079967;28;20232;-85
2023/06/15 02:17:43;;;;;;;2.42;2.22;;;;;;;;;;5079474;28;20587;-84
2023/06/15 02:20:13;;;;;;;2.50;2.22;;;;;;;;;;5079483;28;20204;-82
2023/06/15 02:22:40;;;;;;;3.22;1.95;;;;;;;;;;5080216;28;20231;-82
2023/06/15 02:25:09;;;;;;;2.00;1.85;;;;;;;;;;5079857;28;20281;-84
2023/06/15 02:27:36;;;;;;;2.30;2.10;;;;;;;;;;5078099;28;20262;-84
2023/06/15 02:30:05;;;;;;;3.35;2.22;;;;;;;;;;5076935;28;20367;-85
2023/06/15 02:32:35;;;;;;;2.90;1.98;;;;;;;;;;5076016;28;20200;-86
2023/06/15 02:35:07;;;;;;;2.47;2.28;;;;;;;;;;5075041;28;20225;-86
2023/06/15 02:37:34;;;;;;;2.38;2.17;;;;;;;;;;5074999;28;20266;-86
2023/06/15 02:40:04;;;;;;;3.33;2.63;;;;;;;;;;5075907;28;20674;-87
2023/06/15 02:42:32;;;;;;;2.13;1.92;;;;;;;;;;5077065;28;20204;-86
2023/06/15 02:45:01;;;;;;;2.35;2.15;;;;;;;;;;5076915;28;20580;-87
2023/06/15 02:47:29;;;;;;;2.28;2.08;;;;;;;;;;5076861;28;20197;-85
2023/06/15 02:49:59;;;;;;;2.03;1.92;;;;;;;;;;5075374;28;20201;-86
2023/06/15 02:52:30;;;;;;;2.40;2.20;;;;;;;;;;5076903;28;20216;-86
2023/06/15 02:54:57;;;;;;;1.67;1.58;;;;;;;;;;5075144;28;20224;-87
2023/06/15 02:57:25;;;;;;;2.30;2.10;;;;;;;;;;5074814;28;20296;-87
2023/06/15 02:59:53;;;;;;;1.90;1.70;;;;;;;;;;5075420;28;20207;-88
2023/06/15 03:02:21;;;;;;;1.90;1.80;;;;;;;;;;5075726;28;20270;-86
2023/06/15 03:04:50;;;;;;;1.90;1.80;;;;;;;;;;5075320;28;20255;-86
2023/06/15 03:07:20;;;;;;;2.13;1.80;;;;;;;;;;5075640;28;20291;-87
2023/06/15 03:09:51;;;;;;;2.03;1.55;;;;;;;;;;5075610;28;20393;-86
2023/06/15 03:12:19;;;;;;;2.13;2.00;;;;;;;;;;5075218;28;20681;-86
2023/06/15 03:14:50;;;;;;;4.25;1.92;;;;;;;;;;5075147;28;20239;-86
2023/06/15 03:17:18;;;;;;;2.30;2.10;;;;;;;;;;5075366;28;20196;-86
2023/06/15 03:19:46;;;;;;;3.50;2.00;;;;;;;;;;5075243;28;20205;-86
2023/06/15 03:22:14;;;;;;;3.22;1.90;;;;;;;;;;5075104;28;20193;-87
2023/06/15 03:24:43;;;;;;;2.10;1.90;;;;;;;;;;5075177;28;20258;-86
2023/06/15 03:27:13;;;;;;;2.28;2.17;;;;;;;;;;5074543;28;20208;-86
2023/06/15 03:29:41;;;;;;;1.95;1.85;;;;;;;;;;5075240;28;20205;-86
2023/06/15 03:32:09;;;;;;;2.42;1.83;;;;;;;;;;5073885;28;20229;-85
2023/06/15 03:34:38;;;;;;;2.40;2.20;;;;;;;;;;5074112;28;20613;-86
2023/06/15 03:37:06;;;;;;;2.25;2.08;;;;;;;;;;5074939;28;20196;-86
2023/06/15 03:39:34;;;;;;;2.47;2.00;;;;;;;;;;5074229;28;20201;-86
2023/06/15 03:42:01;;;;;;;4.85;1.90;;;;;;;;;;5074727;28;20250;-87
2023/06/15 03:44:30;;;;;;;2.10;1.90;;;;;;;;;;5074894;28;20236;-87
2023/06/15 03:46:58;;;;;;;1.90;1.80;;;;;;;;;;5074059;28;20293;-85
2023/06/15 03:49:26;;;;;;;1.63;1.52;;;;;;;;;;5074508;28;20197;-87
2023/06/15 03:51:53;;;;;;;5.90;1.95;;;;;;;;;;5074423;28;20255;-85
2023/06/15 03:54:21;;;;;;;1.95;1.85;;;;;;;;;;5073579;28;20284;-85
2023/06/15 03:56:48;;;;;;;2.30;2.10;;;;;;;;;;5074316;28;20331;-87
2023/06/15 03:59:16;;;;;;;2.15;1.95;;;;;;;;;;5073551;28;20246;-87
2023/06/15 04:01:45;;;;;;;1.90;1.80;;;;;;;;;;5073489;28;20193;-86
2023/06/15 04:04:14;;;;;;;1.60;1.50;;;;;;;;;;5074276;28;20189;-86
2023/06/15 04:06:46;;;;;;;1.80;1.70;;;;;;;;;;5078947;28;20328;-87
2023/06/15 04:09:14;;;;;;;2.20;2.00;;;;;;;;;;5075148;28;20258;-84
2023/06/15 04:11:42;;;;;;;2.42;2.17;;;;;;;;;;5074739;28;20225;-86
2023/06/15 04:14:10;;;;;;;2.40;2.30;;;;;;;;;;5074221;28;20649;-86
2023/06/15 04:16:37;;;;;;;1.85;1.75;;;;;;;;;;5073819;28;20845;-88
2023/06/15 04:19:07;;;;;;;2.13;1.90;;;;;;;;;;5073505;28;20268;-87
2023/06/15 04:21:34;;;;;;;3.90;2.15;;;;;;;;;;5075075;28;20289;-87
2023/06/15 04:24:02;;;;;;;1.98;1.50;;;;;;;;;;5075276;28;20297;-87
2023/06/15 04:26:29;;;;;;;3.25;1.90;;;;;;;;;;5073636;28;20212;-87
2023/06/15 04:28:58;;;;;;;1.60;1.50;;;;;;;;;;5073384;28;20197;-87
2023/06/15 04:31:26;;;;;;;1.77;1.67;;;;;;;;;;5074762;28;20278;-86
2023/06/15 04:33:59;;;;;;;1.90;1.80;;;;;;;;;;5075230;28;20211;-87
2023/06/15 04:36:31;;;;;;;2.03;1.92;;;;;;;;;;5074193;28;20217;-87
2023/06/15 04:38:59;;;;;;;1.58;1.48;;;;;;;;;;5073985;28;20193;-86
2023/06/15 04:41:29;;;;;;;1.70;1.60;;;;;;;;;;5073665;28;20193;-86
2023/06/15 04:43:57;;;;;;;1.55;1.45;;;;;;;;;;5074859;28;20232;-86
2023/06/15 04:46:24;;;;;;;1.60;1.50;;;;;;;;;;5075877;28;20315;-86
2023/06/15 04:48:52;;;;;;;1.63;1.52;;;;;;;;;;5073952;28;20232;-86
2023/06/15 04:51:19;;;;;;;1.60;1.50;;;;;;;;;;5074380;28;20583;-88
2023/06/15 04:53:48;;;;;;;1.58;1.48;;;;;;;;;;5074309;28;20209;-87
2023/06/15 04:56:16;;;;;;;3.33;2.35;;;;;;;;;;5072768;28;20221;-87
2023/06/15 04:58:43;;;;;;;2.00;1.90;;;;;;;;;;5078704;28;20258;-87
2023/06/15 05:01:11;;;;;;;3.50;2.67;;;;;;;;;;5077203;28;20288;-87
2023/06/15 05:03:39;;;;;;;2.45;2.25;;;;;;;;;;5077453;28;20205;-87
2023/06/15 05:06:07;;;;;;;2.33;2.13;;;;;;;;;;5077690;28;20225;-87
2023/06/15 05:08:35;;;;;;;3.08;2.50;;;;;;;;;;5077175;28;20212;-87
2023/06/15 05:11:04;;;;;;;2.40;2.20;;;;;;;;;;5077435;28;20232;-87
2023/06/15 05:13:31;;;;;;;2.45;2.25;;;;;;;;;;5073305;28;20223;-86
2023/06/15 05:15:59;;;;;;;2.30;2.10;;;;;;;;;;5056400;28;20252;-86
2023/06/15 05:18:26;;;;;;;2.08;1.83;;;;;;;;;;5073836;28;20285;-87
2023/06/15 05:20:54;;;;;;;1.98;1.88;;;;;;;;;;5077323;28;20740;-85
2023/06/15 05:23:22;;;;;;;2.20;2.05;;;;;;;;;;5076754;28;20283;-87
2023/06/15 05:25:50;;;;;;;2.15;2.05;;;;;;;;;;5077021;28;20573;-87
2023/06/15 05:28:19;;;;;;;2.30;2.10;;;;;;;;;;5077940;28;20200;-87
2023/06/15 05:30:47;;;;;;;7.30;2.65;;;;;;;;;;5078258;28;20647;-86
2023/06/15 05:33:15;;;;;;;1.95;1.83;;;;;;;;;;5076563;28;20223;-88
2023/06/15 05:35:42;;;;;;;1.92;1.80;;;;;;;;;;5081040;28;20213;-88
2023/06/15 05:38:10;;;;;;;2.28;2.08;;;;;;;;;;5089988;28;20232;-86
2023/06/15 05:40:37;;;;;;;3.33;2.65;;;;;;;;;;5076789;28;20233;-88
2023/06/15 05:43:05;;;;;;;1.65;1.55;;;;;;;;;;5081808;28;20197;-87
2023/06/15 05:45:34;;;;;;;1.90;1.60;;;;;;;;;;5064690;28;20218;-87
2023/06/15 05:48:01;;;;;;;2.03;1.92;;;;;;;;;;5056534;28;20248;-88
2023/06/15 05:50:29;;;;;;;2.42;2.22;;;;;;;;;;5055780;28;20305;-87
2023/06/15 05:52:57;;;;;;;2.55;2.17;;;;;;;;;;5056588;28;20316;-87
2023/06/15 05:55:24;;;;;;;2.40;2.20;;;;;;;;;;5055801;28;20309;-87
2023/06/15 05:57:52;;;;;;;2.47;1.70;;;;;;;;;;5056494;28;20236;-86
2023/06/15 06:00:22;;;;;;;2.25;2.05;;;;;;;;;;5056246;28;20205;-87
2023/06/15 06:02:51;;;;;;;3.38;3.08;;;;;;;;;;5056023;28;20205;-87
2023/06/15 06:05:18;;;;;;;2.28;1.98;;;;;;;;;;5056245;28;20225;-85
2023/06/15 06:07:46;;;;;;;2.60;2.15;;;;;;;;;;5055761;28;20211;-86
2023/06/15 06:10:14;;;;;;;2.45;2.30;;;;;;;;;;5054895;28;20292;-88
2023/06/15 06:12:42;;;;;;;2.38;2.17;;;;;;;;;;5055555;28;20744;-86
2023/06/15 06:15:10;;;;;;;1.90;1.77;;;;;;;;;;5069033;28;20745;-87
2023/06/15 06:17:38;;;;;;;2.10;1.95;;;;;;;;;;5055265;28;20684;-87
2023/06/15 06:20:08;;;;;;;2.38;2.17;;;;;;;;;;5055549;28;20237;-88
2023/06/15 06:22:36;;;;;;;2.58;1.88;;;;;;;;;;5055520;28;20738;-88
2023/06/15 06:25:05;;;;;;;2.30;2.10;;;;;;;;;;5055859;28;20773;-88
2023/06/15 06:27:32;;;;;;;4.68;2.47;;;;;;;;;;5055976;28;20207;-87
2023/06/15 06:30:00;;;;;;;2.65;2.45;;;;;;;;;;5055755;28;20240;-87
2023/06/15 06:32:27;;;;;;;2.20;2.00;;;;;;;;;;5055614;28;20297;-88
2023/06/15 06:34:55;;;;;;;2.08;1.98;;;;;;;;;;5055979;28;20218;-87
2023/06/15 06:37:24;;;;;;;2.15;2.00;;;;;;;;;;5055248;28;20240;-87
2023/06/15 06:39:52;;;;;;;2.70;2.28;;;;;;;;;;5055492;28;20210;-87
2023/06/15 06:42:19;;;;;;;2.30;2.10;;;;;;;;;;5056111;28;20569;-88
2023/06/15 06:44:47;;;;;;;2.33;2.13;;;;;;;;;;5066582;28;20926;-86
2023/06/15 06:47:14;;;;;;;2.80;2.42;;;;;;;;;;5076038;28;20840;-86
2023/06/15 06:49:42;;;;;;;2.97;2.78;;;;;;;;;;5075887;28;20236;-88
2023/06/15 06:52:09;;;;;;;2.17;1.98;;;;;;;;;;5075013;28;20661;-86
2023/06/15 06:54:38;;;;;;;3.63;2.90;;;;;;;;;;5075638;28;20260;-87
2023/06/15 06:57:06;;;;;;;3.25;2.58;;;;;;;;;;5075697;28;20259;-87
2023/06/15 06:59:34;;;;;;;1.90;1.80;;;;;;;;;;5074867;28;20214;-87
2023/06/15 07:02:01;;;;;;;2.67;2.47;;;;;;;;;;5074244;28;20212;-85
2023/06/15 07:04:29;;;;;;;2.40;2.20;;;;;;;;;;5073866;28;20201;-86
2023/06/15 07:06:57;;;;;;;1.92;1.83;;;;;;;;;;5074846;28;20569;-87
2023/06/15 07:09:24;;;;;;;2.45;2.25;;;;;;;;;;5074429;28;20200;-86
2023/06/15 07:11:53;;;;;;;3.90;2.40;;;;;;;;;;5074608;28;20196;-87
2023/06/15 07:14:21;;;;;;;2.40;2.20;;;;;;;;;;5074379;28;20677;-88
2023/06/15 07:16:48;;;;;;;2.28;1.83;;;;;;;;;;5074492;28;20221;-87
2023/06/15 07:19:16;;;;;;;2.75;2.28;;;;;;;;;;5074089;28;20240;-87
2023/06/15 07:21:43;;;;;;;2.33;2.10;;;;;;;;;;5073864;28;20288;-86
2023/06/15 07:24:11;;;;;;;3.03;2.65;;;;;;;;;;5074421;28;20228;-87
2023/06/15 07:26:38;;;;;;;2.45;2.28;;;;;;;;;;5074301;28;20308;-87
2023/06/15 07:29:07;;;;;;;3.15;2.35;;;;;;;;;;5074075;28;20323;-87
2023/06/15 07:31:35;;;;;;;1.98;1.85;;;;;;;;;;5074008;28;20288;-88
2023/06/15 07:34:02;;;;;;;2.00;1.90;;;;;;;;;;5074389;28;20316;-87
2023/06/15 07:36:30;;;;;;;4.95;2.58;;;;;;;;;;5074829;28;20217;-86
2023/06/15 07:38:58;;;;;;;4.93;2.15;;;;;;;;;;5073679;28;20284;-88
2023/06/15 07:41:25;;;;;;;5.30;2.83;;;;;;;;;;5074125;28;20696;-88
2023/06/15 07:43:52;;;;;;;2.53;2.33;;;;;;;;;;5074707;28;20291;-87
2023/06/15 07:46:21;;;;;;;2.50;2.30;;;;;;;;;;5074629;28;20216;-86
2023/06/15 07:48:49;;;;;;;4.43;2.47;;;;;;;;;;5074193;28;20288;-87
2023/06/15 07:51:16;;;;;;;2.60;2.25;;;;;;;;;;5073478;28;20291;-86
2023/06/15 07:53:46;;;;;;;2.80;2.60;;;;;;;;;;5072645;28;20228;-86
2023/06/15 07:56:13;;;;;;;3.45;2.40;;;;;;;;;;5073567;28;20247;-87
2023/06/15 07:58:41;;;;;;;3.33;3.03;;;;;;;;;;5073784;28;20651;-86
2023/06/15 08:01:08;;;;;;;2.95;2.10;;;;;;;;;;5074098;28;20288;-86
2023/06/15 08:03:37;;;;;;;2.83;2.63;;;;;;;;;;5073217;28;20292;-87
2023/06/15 08:06:05;;;;;;;2.20;2.00;;;;;;;;;;5073432;28;20309;-86
2023/06/15 08:08:32;;;;;;;2.15;1.90;;;;;;;;;;5073396;28;20205;-86
2023/06/15 08:11:00;;;;;;;2.33;2.13;;;;;;;;;;5073844;28;20219;-87
2023/06/15 08:13:27;;;;;;;3.08;2.70;;;;;;;;;;5074027;28;20205;-86
2023/06/15 08:15:55;;;;;;;2.70;1.80;;;;;;;;;;5074450;28;20323;-86
2023/06/15 08:18:23;;;;;;;2.08;1.98;;;;;;;;;;5074620;28;20295;-87
2023/06/15 08:20:51;;;;;;;2.55;2.35;;;;;;;;;;5074106;28;20254;-85
2023/06/15 08:23:19;;;;;;;2.38;2.17;;;;;;;;;;5075672;28;20383;-86
2023/06/15 08:25:47;;;;;;;2.20;2.10;;;;;;;;;;5077294;28;20244;-83
2023/06/15 08:28:15;;;;;;;2.50;2.30;;;;;;;;;;5077961;28;20223;-83
2023/06/15 08:30:42;;;;;;;2.10;2.00;;;;;;;;;;5077375;28;20292;-82
2023/06/15 08:33:10;;;;;;;2.50;2.30;;;;;;;;;;5075353;28;20225;-83
2023/06/15 08:35:37;;;;;;;3.50;2.10;;;;;;;;;;5075447;28;20278;-83
2023/06/15 08:38:07;;;;;;;3.05;2.53;;;;;;;;;;5075716;28;20672;-82
2023/06/15 08:40:34;;;;;;;3.03;2.72;;;;;;;;;;5075951;28;20258;-86
2023/06/15 08:43:03;;;;;;;2.22;2.00;;;;;;;;;;5074125;28;20228;-84
2023/06/15 08:45:38;;;;;;;2.15;2.05;;;;;;;;;;5075306;28;20213;-85
2023/06/15 08:48:07;;;;;;;2.42;2.22;;;;;;;;;;5076116;28;20204;-85
2023/06/15 08:50:37;;;;;;;2.08;1.90;;;;;;;;;;5075418;28;20208;-85
2023/06/15 08:53:06;;;;;;;1.83;1.73;;;;;;;;;;5076951;28;20291;-84
2023/06/15 08:55:37;;;;;;;2.33;1.88;;;;;;;;;;5075444;28;20879;-82
2023/06/15 08:58:07;;;;;;;2.42;2.13;;;;;;;;;;5075223;28;20292;-85
2023/06/15 09:00:35;;;;;;;1.70;1.60;;;;;;;;;;5076136;28;20205;-84
2023/06/15 09:03:04;;;;;;;2.15;2.05;;;;;;;;;;5075696;28;20211;-83
2023/06/15 09:05:32;;;;;;;1.77;1.67;;;;;;;;;;5077392;28;20227;-84
2023/06/15 09:08:00;;;;;;;1.70;1.60;;;;;;;;;;5075869;28;20200;-84
2023/06/15 09:10:29;;;;;;;2.03;1.88;;;;;;;;;;5076080;28;20205;-83
2023/06/15 09:12:58;;;;;;;5.05;2.60;;;;;;;;;;5076784;28;20208;-85
2023/06/15 09:15:27;;;;;;;2.25;1.80;;;;;;;;;;5075955;28;20278;-83
2023/06/15 09:17:56;;;;;;;22.60;3.25;;;;;;;;;;5076214;28;20212;-84
2023/06/15 09:20:26;;;;;;;3.22;2.90;;;;;;;;;;5076491;28;20250;-85
2023/06/15 09:22:57;;;;;;;2.25;2.05;;;;;;;;;;5076711;28;20260;-83
2023/06/15 09:25:25;;;;;;;3.70;1.95;;;;;;;;;;5078508;28;20300;-83
2023/06/15 09:27:57;;;;;;;2.22;2.03;;;;;;;;;;5076062;28;20645;-83
2023/06/15 09:30:32;;;;;;;1.88;1.77;;;;;;;;;;5076880;28;20272;-83
2023/06/15 09:33:00;;;;;;;2.05;1.92;;;;;;;;;;5076156;28;20185;-83
2023/06/15 09:35:29;;;;;;;2.28;2.00;;;;;;;;;;5074942;28;20229;-83
2023/06/15 09:37:57;;;;;;;1.67;1.58;;;;;;;;;;5075327;28;20228;-83
2023/06/15 09:40:28;;;;;;;1.90;1.67;;;;;;;;;;5075153;28;20236;-84
2023/06/15 09:42:57;;;;;;;1.58;1.48;;;;;;;;;;5075537;28;20312;-83
2023/06/15 09:45:25;;;;;;;1.83;1.73;;;;;;;;;;5077517;28;20399;-86
2023/06/15 09:47:57;;;;;;;2.50;2.30;;;;;;;;;;5077403;28;20273;-85
2023/06/15 09:50:30;;;;;;;3.35;2.20;;;;;;;;;;5078571;28;20204;-84
2023/06/15 09:53:00;;;;;;;2.83;2.00;;;;;;;;;;5079064;28;20283;-85
2023/06/15 09:55:28;;;;;;;2.30;1.98;;;;;;;;;;5078921;28;20316;-83
2023/06/15 09:57:58;;;;;;;2.17;2.08;;;;;;;;;;5078027;28;20705;-84
2023/06/15 10:00:25;;;;;;;2.10;1.90;;;;;;;;;;5078509;28;20757;-82
2023/06/15 10:02:53;;;;;;;2.00;1.90;;;;;;;;;;5077903;28;20674;-82
2023/06/15 10:05:22;;;;;;;2.58;2.33;;;;;;;;;;5078460;28;20288;-82
2023/06/15 10:07:50;;;;;;;2.28;2.13;;;;;;;;;;5078067;28;20201;-83
2023/06/15 10:10:18;;;;;;;2.88;2.05;;;;;;;;;;5078485;28;20291;-81
2023/06/15 10:12:51;;;;;;;2.30;2.20;;;;;;;;;;5077854;28;20228;-82
2023/06/15 10:15:21;;;;;;;2.50;2.15;;;;;;;;;;5078142;28;20229;-82
2023/06/15 10:17:52;;;;;;;2.88;2.00;;;;;;;;;;5077807;28;20208;-82
2023/06/15 10:20:21;;;;;;;2.85;2.03;;;;;;;;;;5078608;28;20188;-83
2023/06/15 10:22:56;;;;;;;1.83;1.73;;;;;;;;;;5078209;28;20236;-82
2023/06/15 10:25:25;;;;;;;2.13;1.92;;;;;;;;;;5078120;28;20357;-84
2023/06/15 10:27:52;;;;;;;2.30;1.67;;;;;;;;;;5078363;28;20194;-83
2023/06/15 10:30:31;;;;;;;2.00;1.90;;;;;;;;;;5077378;28;20316;-84
2023/06/15 10:33:06;;;;;;;2.42;2.22;;;;;;;;;;5078551;28;20216;-84
2023/06/15 10:35:39;;;;;;;2.13;2.03;;;;;;;;;;5077516;28;20319;-82
2023/06/15 10:38:19;;;;;;;2.28;2.08;;;;;;;;;;5077496;28;20193;-84
2023/06/15 10:40:49;;;;;;;2.35;2.03;;;;;;;;;;5077819;28;20193;-84
2023/06/15 10:43:20;;;;;;;2.13;1.92;;;;;;;;;;5077460;28;20243;-83
2023/06/15 10:45:50;;;;;;;1.70;1.60;;;;;;;;;;5077563;28;20216;-83
2023/06/15 10:48:26;;;;;;;2.75;1.92;;;;;;;;;;5076810;28;20236;-82
2023/06/15 10:51:02;;;;;;;1.70;1.60;;;;;;;;;;5078265;28;20188;-82
2023/06/15 10:53:34;;;;;;;2.75;1.58;;;;;;;;;;5077075;28;20189;-83
2023/06/15 10:56:02;;;;;;;2.22;2.03;;;;;;;;;;5078493;28;20231;-83
2023/06/15 10:58:30;;;;;;;2.67;2.47;;;;;;;;;;5077111;28;20207;-84
2023/06/15 11:01:10;;;;;;;2.85;2.13;;;;;;;;;;5076811;28;20201;-83
2023/06/15 11:03:40;;;;;;;2.85;2.65;;;;;;;;;;5076034;28;20217;-82
2023/06/15 11:06:10;;;;;;;2.35;2.15;;;;;;;;;;5078066;28;20223;-82
2023/06/15 11:08:48;;;;;;;2.17;2.08;;;;;;;;;;5076294;28;20197;-81
2023/06/15 11:11:17;;;;;;;9.02;2.40;;;;;;;;;;5077047;28;20242;-83
2023/06/15 11:14:02;;;;;;;1.70;1.60;;;;;;;;;;5077635;28;20713;-82
2023/06/15 11:16:33;;;;;;;1.80;1.70;;;;;;;;;;5077046;28;20225;-83
2023/06/15 11:19:23;;;;;;;2.33;1.80;;;;;;;;;;5075938;28;20295;-82
2023/06/15 11:21:59;;;;;;;3.03;2.83;;;;;;;;;;5077066;28;20777;-83
2023/06/15 11:24:27;;;;;;;1.95;1.85;;;;;;;;;;5076484;28;20197;-81
2023/06/15 11:26:55;;;;;;;2.05;1.80;;;;;;;;;;5078102;28;20247;-84
2023/06/15 11:29:25;;;;;;;1.80;1.70;;;;;;;;;;5077460;28;20209;-83
2023/06/15 11:31:55;;;;;;;1.75;1.65;;;;;;;;;;5076339;28;20280;-82
2023/06/15 11:34:22;;;;;;;2.38;2.17;;;;;;;;;;5075566;28;20243;-85
2023/06/15 11:36:50;;;;;;;2.10;2.00;;;;;;;;;;5074501;28;20231;-84
2023/06/15 11:39:21;;;;;;;2.05;1.85;;;;;;;;;;5075136;28;20311;-82
2023/06/15 11:41:50;;;;;;;1.80;1.70;;;;;;;;;;5075144;28;20201;-84
2023/06/15 11:44:18;;;;;;;2.50;2.22;;;;;;;;;;5075350;28;20209;-83
2023/06/15 11:46:54;;;;;;;2.25;2.05;;;;;;;;;;5075439;28;20663;-83
2023/06/15 11:49:22;;;;;;;2.42;2.25;;;;;;;;;;5075012;28;20277;-83
2023/06/15 11:51:52;;;;;;;2.55;2.38;;;;;;;;;;5076024;28;20197;-83
2023/06/15 11:54:25;;;;;;;2.28;1.85;;;;;;;;;;5075087;28;20207;-82
2023/06/15 11:56:53;;;;;;;2.03;1.88;;;;;;;;;;5075204;28;20232;-84
2023/06/15 11:59:22;;;;;;;2.42;1.95;;;;;;;;;;5074929;28;20291;-84
2023/06/15 12:01:50;;;;;;;1.80;1.70;;;;;;;;;;5075409;28;20235;-82
2023/06/15 12:04:19;;;;;;;2.08;1.98;;;;;;;;;;5075283;28;20238;-83
2023/06/15 12:06:48;;;;;;;3.05;2.85;;;;;;;;;;5075502;28;20213;-83
2023/06/15 12:09:16;;;;;;;2.28;2.08;;;;;;;;;;5076473;28;20641;-82
2023/06/15 12:11:45;;;;;;;2.10;1.90;;;;;;;;;;5075835;28;20196;-84
2023/06/15 12:14:16;;;;;;;1.80;1.70;;;;;;;;;;5075940;28;20205;-83
2023/06/15 12:16:50;;;;;;;2.75;2.00;;;;;;;;;;5074873;28;20231;-83
2023/06/15 12:19:20;;;;;;;1.88;1.65;;;;;;;;;;5075397;28;20192;-82
2023/06/15 12:21:48;;;;;;;1.77;1.58;;;;;;;;;;5074967;28;20890;-82
2023/06/15 12:24:17;;;;;;;2.50;1.98;;;;;;;;;;5075264;28;20288;-81
2023/06/15 12:26:52;;;;;;;2.42;1.80;;;;;;;;;;5075913;28;20282;-82
2023/06/15 12:29:21;;;;;;;2.10;1.90;;;;;;;;;;5075408;28;20252;-82
2023/06/15 12:31:49;;;;;;;1.90;1.80;;;;;;;;;;5075028;28;20227;-83
2023/06/15 12:34:24;;;;;;;2.08;1.77;;;;;;;;;;5075689;28;20269;-82
2023/06/15 12:36:52;;;;;;;2.78;1.90;;;;;;;;;;5075703;28;20225;-83
2023/06/15 12:39:20;;;;;;;1.90;1.80;;;;;;;;;;5076734;28;20235;-82
2023/06/15 12:41:48;;;;;;;2.30;2.20;;;;;;;;;;5075906;28;20201;-85
2023/06/15 12:44:15;;;;;;;2.42;2.28;;;;;;;;;;5074486;28;20247;-83
2023/06/15 12:46:43;;;;;;;2.83;1.77;;;;;;;;;;5074874;28;20217;-84
2023/06/15 12:49:11;;;;;;;2.42;1.90;;;;;;;;;;5075415;28;20246;-82
2023/06/15 12:51:46;;;;;;;2.28;2.17;;;;;;;;;;5075358;28;20209;-83
2023/06/15 12:54:13;;;;;;;2.28;2.15;;;;;;;;;;5075172;28;20191;-84
2023/06/15 12:56:41;;;;;;;2.05;1.95;;;;;;;;;;5075185;28;20252;-83
2023/06/15 12:59:08;;;;;;;2.15;2.00;;;;;;;;;;5074928;28;20284;-83
2023/06/15 13:01:36;;;;;;;3.08;2.05;;;;;;;;;;5074840;28;20201;-82
2023/06/15 13:04:04;;;;;;;2.30;2.10;;;;;;;;;;5076294;28;20243;-83
2023/06/15 13:06:31;;;;;;;2.40;2.05;;;;;;;;;;5075151;28;20260;-83
2023/06/15 13:09:00;;;;;;;1.90;1.80;;;;;;;;;;5075217;28;20211;-82
2023/06/15 13:11:27;;;;;;;1.90;1.80;;;;;;;;;;5074961;28;20284;-83
2023/06/15 13:13:55;;;;;;;5.22;2.10;;;;;;;;;;5075095;28;20239;-84
2023/06/15 13:16:22;;;;;;;2.30;2.10;;;;;;;;;;5074940;28;20300;-83
2023/06/15 13:18:50;;;;;;;10.23;2.20;;;;;;;;;;5075831;28;20255;-82
2023/06/15 13:21:17;;;;;;;2.65;1.90;;;;;;;;;;5079416;28;20627;-83
2023/06/15 13:23:45;;;;;;;2.63;2.42;;;;;;;;;;5079492;28;20268;-82
2023/06/15 13:26:13;;;;;;;2.65;2.45;;;;;;;;;;5079071;28;20316;-84
2023/06/15 13:28:41;;;;;;;1.95;1.85;;;;;;;;;;5079196;28;20201;-84
2023/06/15 13:31:09;;;;;;;1.70;1.60;;;;;;;;;;5079737;28;20201;-84
2023/06/15 13:33:38;;;;;;;1.77;1.67;;;;;;;;;;5079175;28;20201;-83
2023/06/15 13:36:06;;;;;;;2.40;2.20;;;;;;;;;;5079058;28;20225;-83
2023/06/15 13:38:34;;;;;;;2.55;1.90;;;;;;;;;;5079376;28;20248;-83
2023/06/15 13:41:01;;;;;;;3.50;2.42;;;;;;;;;;5079705;28;20205;-85
2023/06/15 13:43:30;;;;;;;2.50;2.30;;;;;;;;;;5079947;28;20232;-83
2023/06/15 13:45:58;;;;;;;4.43;2.28;;;;;;;;;;5078672;28;20220;-82
2023/06/15 13:48:26;;;;;;;2.22;2.05;;;;;;;;;;5079479;28;20709;-82
2023/06/15 13:50:53;;;;;;;2.08;1.98;;;;;;;;;;5079503;28;20232;-85
2023/06/15 13:53:21;;;;;;;2.42;2.22;;;;;;;;;;5078544;28;20613;-82
2023/06/15 13:55:48;;;;;;;2.08;1.98;;;;;;;;;;5079300;28;20220;-84
2023/06/15 13:58:16;;;;;;;2.10;2.00;;;;;;;;;;5079147;28;20256;-84
2023/06/15 14:00:44;;;;;;;2.60;2.40;;;;;;;;;;5078759;28;20224;-85
2023/06/15 14:03:12;;;;;;;2.28;1.95;;;;;;;;;;5079231;28;20209;-82
2023/06/15 14:05:39;;;;;;;2.50;2.30;;;;;;;;;;5079258;28;20251;-82
2023/06/15 14:08:07;;;;;;;1.73;1.63;;;;;;;;;;5079576;28;20240;-82
2023/06/15 14:10:35;;;;;;;2.58;2.38;;;;;;;;;;5079121;28;20204;-82
2023/06/15 14:13:04;;;;;;;2.25;2.05;;;;;;;;;;5078287;28;20201;-82
2023/06/15 14:15:32;;;;;;;2.03;1.92;;;;;;;;;;5079206;28;20232;-85
2023/06/15 14:18:01;;;;;;;2.20;1.95;;;;;;;;;;5078216;28;20311;-84
2023/06/15 14:20:28;;;;;;;3.03;1.98;;;;;;;;;;5078761;28;20230;-84
2023/06/15 14:22:56;;;;;;;2.33;2.13;;;;;;;;;;5079255;28;20291;-85
2023/06/15 14:25:23;;;;;;;2.00;1.90;;;;;;;;;;5078042;28;20284;-85
2023/06/15 14:27:51;;;;;;;2.80;2.50;;;;;;;;;;5080521;28;20197;-86
2023/06/15 14:30:18;;;;;;;2.33;2.10;;;;;;;;;;5082198;28;20190;-84
2023/06/15 14:32:46;;;;;;;2.17;2.00;;;;;;;;;;5082066;28;20200;-86
2023/06/15 14:35:15;;;;;;;2.58;2.25;;;;;;;;;;5083334;28;20252;-86
2023/06/15 14:37:42;;;;;;;2.63;2.42;;;;;;;;;;5081533;28;20255;-84
2023/06/15 14:40:11;;;;;;;2.17;2.05;;;;;;;;;;5081460;28;20695;-86
2023/06/15 14:42:47;;;;;;;1.92;1.75;;;;;;;;;;5080666;28;20204;-86
2023/06/15 14:45:16;;;;;;;2.40;2.17;;;;;;;;;;5076013;28;20595;-84
2023/06/15 14:47:43;;;;;;;2.35;2.15;;;;;;;;;;5080703;28;20232;-85
2023/06/15 14:50:11;;;;;;;2.08;1.98;;;;;;;;;;5081387;28;20227;-84
2023/06/15 14:52:41;;;;;;;2.08;1.90;;;;;;;;;;5080411;28;20201;-85